sensor_id;sensor_type;location;lat;lon;timestamp;temperature;humidity
13052;DHT22;6592;47.484;9.726;2023-04-01T00:01:18;10.00;99.90
13052;DHT22;6592;47.484;9.726;2023-04-01T00:03:48;10.00;99.90
13052;DHT22;6592;47.484;9.726;2023-04-01T00:06:18;10.00;99.90
13052;DHT22;6592;47.484;9.726;2023-04-01T00:08:47;10.00;99.90
13052;DHT22;6592;47.484;9.726;2023-04-01T00:11:16;10.00;99.90
13052;DHT22;6592;47.484;9.726;2023-04-01T00:13:47;10.00;99.90
13052;DHT22;6592;47.484;9.726;2023-04-01T00:16:16;9.90;99.90
13052;DHT22;6592;47.484;9.726;2023-04-01T00:18:50;9.90;99.90
13052;DHT22;6592;47.484;9.726;2023-04-01T00:21:19;9.90;99.90
13052;DHT22;6592;47.484;9.726;2023-04-01T00:23:49;9.80;99.90
13052;DHT22;6592;47.484;9.726;2023-04-01T00:26:18;9.80;99.90
13052;DHT22;6592;47.484;9.726;2023-04-01T00:28:49;9.80;99.90
13052;DHT22;6592;47.484;9.726;2023-04-01T00:31:18;9.80;99.90
13052;DHT22;6592;47.484;9.726;2023-04-01T00:33:49;9.80;99.90
13052;DHT22;6592;47.484;9.726;2023-04-01T00:36:19;9.80;99.90
13052;DHT22;6592;47.484;9.726;2023-04-01T00:38:49;9.80;99.90
13052;DHT22;6592;47.484;9.726;2023-04-01T00:41:19;9.80;99.90
13052;DHT22;6592;47.484;9.726;2023-04-01T00:43:50;9.70;99.90
13052;DHT22;6592;47.484;9.726;2023-04-01T00:46:19;9.60;99.90
13052;DHT22;6592;47.484;9.726;2023-04-01T00:48:52;9.70;99.90
13052;DHT22;6592;47.484;9.726;2023-04-01T00:51:25;9.70;99.90
13052;DHT22;6592;47.484;9.726;2023-04-01T00:53:55;9.70;99.90
13052;DHT22;6592;47.484;9.726;2023-04-01T00:56:27;9.70;99.90
13052;DHT22;6592;47.484;9.726;2023-04-01T00:59:01;9.60;99.90
13052;DHT22;6592;47.484;9.726;2023-04-01T01:01:30;9.60;99.90
13052;DHT22;6592;47.484;9.726;2023-04-01T01:04:02;9.70;99.90
13052;DHT22;6592;47.484;9.726;2023-04-01T01:06:40;9.60;99.90
13052;DHT22;6592;47.484;9.726;2023-04-01T01:09:31;9.60;99.90
13052;DHT22;6592;47.484;9.726;2023-04-01T01:12:07;9.60;99.90
13052;DHT22;6592;47.484;9.726;2023-04-01T01:14:53;9.50;99.90
13052;DHT22;6592;47.484;9.726;2023-04-01T01:17:32;9.50;99.90
13052;DHT22;6592;47.484;9.726;2023-04-01T01:20:53;9.60;99.90
13052;DHT22;6592;47.484;9.726;2023-04-01T01:26:49;9.60;99.90
13052;DHT22;6592;47.484;9.726;2023-04-01T01:32:55;9.70;99.90
13052;DHT22;6592;47.484;9.726;2023-04-01T01:35:32;9.70;99.90
13052;DHT22;6592;47.484;9.726;2023-04-01T01:38:03;9.70;99.90
13052;DHT22;6592;47.484;9.726;2023-04-01T01:40:34;9.70;99.90
13052;DHT22;6592;47.484;9.726;2023-04-01T01:43:06;9.70;99.90
13052;DHT22;6592;47.484;9.726;2023-04-01T01:45:37;9.70;99.90
13052;DHT22;6592;47.484;9.726;2023-04-01T01:48:10;8.70;99.90
13052;DHT22;6592;47.484;9.726;2023-04-01T01:50:41;9.60;99.90
13052;DHT22;6592;47.484;9.726;2023-04-01T01:53:11;9.70;99.90
13052;DHT22;6592;47.484;9.726;2023-04-01T01:55:43;9.60;99.90
13052;DHT22;6592;47.484;9.726;2023-04-01T01:58:15;9.60;99.90
13052;DHT22;6592;47.484;9.726;2023-04-01T02:00:48;9.60;99.90
13052;DHT22;6592;47.484;9.726;2023-04-01T02:03:22;9.60;99.90
13052;DHT22;6592;47.484;9.726;2023-04-01T02:05:56;9.60;99.90
13052;DHT22;6592;47.484;9.726;2023-04-01T02:08:27;9.70;99.90
13052;DHT22;6592;47.484;9.726;2023-04-01T02:11:00;9.60;99.90
13052;DHT22;6592;47.484;9.726;2023-04-01T02:13:33;9.70;99.90
13052;DHT22;6592;47.484;9.726;2023-04-01T02:16:06;9.70;99.90
13052;DHT22;6592;47.484;9.726;2023-04-01T02:18:38;9.60;99.90
13052;DHT22;6592;47.484;9.726;2023-04-01T02:21:09;9.70;99.90
13052;DHT22;6592;47.484;9.726;2023-04-01T02:23:38;9.70;99.90
13052;DHT22;6592;47.484;9.726;2023-04-01T02:26:10;9.70;99.90
13052;DHT22;6592;47.484;9.726;2023-04-01T02:28:41;9.70;99.90
13052;DHT22;6592;47.484;9.726;2023-04-01T02:31:13;9.70;99.90
13052;DHT22;6592;47.484;9.726;2023-04-01T02:33:45;9.70;99.90
13052;DHT22;6592;47.484;9.726;2023-04-01T02:36:16;9.70;99.90
13052;DHT22;6592;47.484;9.726;2023-04-01T02:38:46;9.80;99.90
13052;DHT22;6592;47.484;9.726;2023-04-01T02:41:16;9.70;99.90
13052;DHT22;6592;47.484;9.726;2023-04-01T02:43:45;9.70;99.90
13052;DHT22;6592;47.484;9.726;2023-04-01T02:46:14;9.40;99.90
13052;DHT22;6592;47.484;9.726;2023-04-01T02:48:43;9.70;99.90
13052;DHT22;6592;47.484;9.726;2023-04-01T02:51:12;9.70;99.90
13052;DHT22;6592;47.484;9.726;2023-04-01T02:53:46;9.70;99.90
13052;DHT22;6592;47.484;9.726;2023-04-01T02:56:14;9.60;99.90
13052;DHT22;6592;47.484;9.726;2023-04-01T02:58:44;9.60;99.90
13052;DHT22;6592;47.484;9.726;2023-04-01T03:01:13;9.60;99.90
13052;DHT22;6592;47.484;9.726;2023-04-01T03:03:42;9.60;99.90
13052;DHT22;6592;47.484;9.726;2023-04-01T03:06:12;9.60;99.90
13052;DHT22;6592;47.484;9.726;2023-04-01T03:08:41;9.50;99.90
13052;DHT22;6592;47.484;9.726;2023-04-01T03:11:12;9.60;99.90
13052;DHT22;6592;47.484;9.726;2023-04-01T03:13:41;9.60;99.90
13052;DHT22;6592;47.484;9.726;2023-04-01T03:16:10;9.60;99.90
13052;DHT22;6592;47.484;9.726;2023-04-01T03:18:41;9.60;99.90
13052;DHT22;6592;47.484;9.726;2023-04-01T03:21:15;9.60;99.90
13052;DHT22;6592;47.484;9.726;2023-04-01T03:23:45;9.70;99.90
13052;DHT22;6592;47.484;9.726;2023-04-01T03:26:17;9.70;99.90
13052;DHT22;6592;47.484;9.726;2023-04-01T03:28:47;9.70;99.90
13052;DHT22;6592;47.484;9.726;2023-04-01T03:31:17;9.70;99.90
13052;DHT22;6592;47.484;9.726;2023-04-01T03:33:49;9.70;99.90
13052;DHT22;6592;47.484;9.726;2023-04-01T03:36:18;9.70;99.90
13052;DHT22;6592;47.484;9.726;2023-04-01T03:38:47;9.80;99.90
13052;DHT22;6592;47.484;9.726;2023-04-01T03:41:18;9.70;99.90
13052;DHT22;6592;47.484;9.726;2023-04-01T03:43:47;9.70;99.90
13052;DHT22;6592;47.484;9.726;2023-04-01T03:46:17;9.00;99.90
13052;DHT22;6592;47.484;9.726;2023-04-01T03:48:46;9.60;99.90
13052;DHT22;6592;47.484;9.726;2023-04-01T03:51:15;9.60;99.90
13052;DHT22;6592;47.484;9.726;2023-04-01T03:53:44;9.60;99.90
13052;DHT22;6592;47.484;9.726;2023-04-01T03:56:13;9.60;99.90
13052;DHT22;6592;47.484;9.726;2023-04-01T03:58:44;9.60;99.90
13052;DHT22;6592;47.484;9.726;2023-04-01T04:01:15;9.60;99.90
13052;DHT22;6592;47.484;9.726;2023-04-01T04:03:44;9.40;99.90
13052;DHT22;6592;47.484;9.726;2023-04-01T04:06:13;9.60;99.90
13052;DHT22;6592;47.484;9.726;2023-04-01T04:08:43;9.50;99.90
13052;DHT22;6592;47.484;9.726;2023-04-01T04:11:13;9.50;99.90
13052;DHT22;6592;47.484;9.726;2023-04-01T04:13:44;9.50;99.90
13052;DHT22;6592;47.484;9.726;2023-04-01T04:16:15;9.50;99.90
13052;DHT22;6592;47.484;9.726;2023-04-01T04:18:46;9.50;99.90
13052;DHT22;6592;47.484;9.726;2023-04-01T04:21:16;9.40;99.90
13052;DHT22;6592;47.484;9.726;2023-04-01T04:23:44;9.40;99.90
13052;DHT22;6592;47.484;9.726;2023-04-01T04:26:14;9.40;99.90
13052;DHT22;6592;47.484;9.726;2023-04-01T04:28:44;9.40;99.90
13052;DHT22;6592;47.484;9.726;2023-04-01T04:31:18;9.40;99.90
13052;DHT22;6592;47.484;9.726;2023-04-01T04:33:48;9.40;99.90
13052;DHT22;6592;47.484;9.726;2023-04-01T04:36:17;9.40;99.90
13052;DHT22;6592;47.484;9.726;2023-04-01T04:38:49;9.30;99.90
13052;DHT22;6592;47.484;9.726;2023-04-01T04:41:18;9.20;99.90
13052;DHT22;6592;47.484;9.726;2023-04-01T04:43:52;9.30;99.90
13052;DHT22;6592;47.484;9.726;2023-04-01T04:46:22;9.20;99.90
13052;DHT22;6592;47.484;9.726;2023-04-01T04:48:51;9.20;99.90
13052;DHT22;6592;47.484;9.726;2023-04-01T04:51:20;9.10;99.90
13052;DHT22;6592;47.484;9.726;2023-04-01T04:53:49;9.30;99.90
13052;DHT22;6592;47.484;9.726;2023-04-01T04:56:19;9.20;99.90
13052;DHT22;6592;47.484;9.726;2023-04-01T04:58:50;9.30;99.90
13052;DHT22;6592;47.484;9.726;2023-04-01T05:01:19;9.30;99.90
13052;DHT22;6592;47.484;9.726;2023-04-01T05:03:48;9.20;99.90
13052;DHT22;6592;47.484;9.726;2023-04-01T05:06:17;9.20;99.90
13052;DHT22;6592;47.484;9.726;2023-04-01T05:08:49;9.20;99.90
13052;DHT22;6592;47.484;9.726;2023-04-01T05:11:19;9.20;99.90
13052;DHT22;6592;47.484;9.726;2023-04-01T05:13:47;9.20;99.90
13052;DHT22;6592;47.484;9.726;2023-04-01T05:16:19;9.20;99.90
13052;DHT22;6592;47.484;9.726;2023-04-01T05:18:48;9.20;99.90
13052;DHT22;6592;47.484;9.726;2023-04-01T05:21:17;9.20;99.90
13052;DHT22;6592;47.484;9.726;2023-04-01T05:23:47;9.20;99.90
13052;DHT22;6592;47.484;9.726;2023-04-01T05:26:18;9.30;99.90
13052;DHT22;6592;47.484;9.726;2023-04-01T05:28:48;9.30;99.90
13052;DHT22;6592;47.484;9.726;2023-04-01T05:31:18;9.40;99.90
13052;DHT22;6592;47.484;9.726;2023-04-01T05:33:47;9.40;99.90
13052;DHT22;6592;47.484;9.726;2023-04-01T05:36:16;9.40;99.90
13052;DHT22;6592;47.484;9.726;2023-04-01T05:38:44;9.40;99.90
13052;DHT22;6592;47.484;9.726;2023-04-01T05:41:14;9.40;99.90
13052;DHT22;6592;47.484;9.726;2023-04-01T05:43:43;9.50;99.90
13052;DHT22;6592;47.484;9.726;2023-04-01T05:46:11;9.50;99.90
13052;DHT22;6592;47.484;9.726;2023-04-01T05:48:41;9.50;99.90
13052;DHT22;6592;47.484;9.726;2023-04-01T05:51:12;9.50;99.90
13052;DHT22;6592;47.484;9.726;2023-04-01T05:53:42;9.50;99.90
13052;DHT22;6592;47.484;9.726;2023-04-01T05:56:10;9.40;99.90
13052;DHT22;6592;47.484;9.726;2023-04-01T05:58:39;9.50;99.90
13052;DHT22;6592;47.484;9.726;2023-04-01T06:01:09;9.40;99.90
13052;DHT22;6592;47.484;9.726;2023-04-01T06:03:43;9.40;99.90
13052;DHT22;6592;47.484;9.726;2023-04-01T06:06:14;9.50;99.90
13052;DHT22;6592;47.484;9.726;2023-04-01T06:08:43;9.40;99.90
13052;DHT22;6592;47.484;9.726;2023-04-01T06:11:23;9.40;99.90
13052;DHT22;6592;47.484;9.726;2023-04-01T06:14:11;9.50;99.90
13052;DHT22;6592;47.484;9.726;2023-04-01T06:16:53;9.50;99.90
13052;DHT22;6592;47.484;9.726;2023-04-01T06:19:36;9.60;99.90
13052;DHT22;6592;47.484;9.726;2023-04-01T06:22:27;9.70;99.90
13052;DHT22;6592;47.484;9.726;2023-04-01T06:25:28;9.70;99.90
13052;DHT22;6592;47.484;9.726;2023-04-01T06:28:14;9.70;99.90
13052;DHT22;6592;47.484;9.726;2023-04-01T06:30:49;9.80;99.90
13052;DHT22;6592;47.484;9.726;2023-04-01T06:33:39;9.80;99.90
13052;DHT22;6592;47.484;9.726;2023-04-01T06:36:38;9.80;99.90
13052;DHT22;6592;47.484;9.726;2023-04-01T06:39:41;9.90;99.90
13052;DHT22;6592;47.484;9.726;2023-04-01T06:42:23;9.80;99.90
13052;DHT22;6592;47.484;9.726;2023-04-01T06:45:05;9.70;99.90
13052;DHT22;6592;47.484;9.726;2023-04-01T06:47:47;9.70;99.90
13052;DHT22;6592;47.484;9.726;2023-04-01T06:50:24;9.70;99.90
13052;DHT22;6592;47.484;9.726;2023-04-01T06:53:01;9.80;99.90
13052;DHT22;6592;47.484;9.726;2023-04-01T06:55:37;9.80;99.90
13052;DHT22;6592;47.484;9.726;2023-04-01T06:58:15;9.70;99.90
13052;DHT22;6592;47.484;9.726;2023-04-01T07:00:49;9.90;99.90
13052;DHT22;6592;47.484;9.726;2023-04-01T07:03:23;10.30;99.90
13052;DHT22;6592;47.484;9.726;2023-04-01T07:05:59;10.80;99.90
13052;DHT22;6592;47.484;9.726;2023-04-01T07:08:35;11.10;99.90
13052;DHT22;6592;47.484;9.726;2023-04-01T07:11:05;11.30;99.90
13052;DHT22;6592;47.484;9.726;2023-04-01T07:13:36;11.40;99.90
13052;DHT22;6592;47.484;9.726;2023-04-01T07:16:13;11.70;99.90
13052;DHT22;6592;47.484;9.726;2023-04-01T07:18:47;12.10;99.90
13052;DHT22;6592;47.484;9.726;2023-04-01T07:21:25;12.40;99.90
13052;DHT22;6592;47.484;9.726;2023-04-01T07:24:03;13.20;99.90
13052;DHT22;6592;47.484;9.726;2023-04-01T07:26:33;13.30;99.90
13052;DHT22;6592;47.484;9.726;2023-04-01T07:29:01;13.00;99.90
13052;DHT22;6592;47.484;9.726;2023-04-01T07:31:48;12.40;99.90
13052;DHT22;6592;47.484;9.726;2023-04-01T07:34:23;12.20;99.90
13052;DHT22;6592;47.484;9.726;2023-04-01T07:36:57;11.90;99.90
13052;DHT22;6592;47.484;9.726;2023-04-01T07:39:38;12.00;99.90
13052;DHT22;6592;47.484;9.726;2023-04-01T07:42:14;12.00;99.90
13052;DHT22;6592;47.484;9.726;2023-04-01T07:44:48;12.60;99.90
13052;DHT22;6592;47.484;9.726;2023-04-01T07:47:33;12.90;99.90
13052;DHT22;6592;47.484;9.726;2023-04-01T07:50:13;12.90;99.90
13052;DHT22;6592;47.484;9.726;2023-04-01T07:52:47;13.70;99.90
13052;DHT22;6592;47.484;9.726;2023-04-01T07:55:24;14.70;99.90
13052;DHT22;6592;47.484;9.726;2023-04-01T07:58:00;15.10;99.90
13052;DHT22;6592;47.484;9.726;2023-04-01T08:00:35;15.00;99.90
13052;DHT22;6592;47.484;9.726;2023-04-01T08:03:27;14.80;99.90
13052;DHT22;6592;47.484;9.726;2023-04-01T08:06:02;14.10;99.90
13052;DHT22;6592;47.484;9.726;2023-04-01T08:08:38;13.40;99.90
13052;DHT22;6592;47.484;9.726;2023-04-01T08:11:17;12.90;99.90
13052;DHT22;6592;47.484;9.726;2023-04-01T08:13:56;12.40;99.90
13052;DHT22;6592;47.484;9.726;2023-04-01T08:16:31;12.00;99.90
13052;DHT22;6592;47.484;9.726;2023-04-01T08:19:09;11.90;99.90
13052;DHT22;6592;47.484;9.726;2023-04-01T08:21:43;11.90;99.90
13052;DHT22;6592;47.484;9.726;2023-04-01T08:24:22;11.80;99.90
13052;DHT22;6592;47.484;9.726;2023-04-01T08:27:11;11.70;99.90
13052;DHT22;6592;47.484;9.726;2023-04-01T08:29:44;11.60;99.90
13052;DHT22;6592;47.484;9.726;2023-04-01T08:32:17;11.40;99.90
13052;DHT22;6592;47.484;9.726;2023-04-01T08:34:54;11.40;99.90
13052;DHT22;6592;47.484;9.726;2023-04-01T08:37:30;11.30;99.90
13052;DHT22;6592;47.484;9.726;2023-04-01T08:40:04;11.30;99.90
13052;DHT22;6592;47.484;9.726;2023-04-01T08:42:51;11.30;99.90
13052;DHT22;6592;47.484;9.726;2023-04-01T08:45:30;11.20;99.90
13052;DHT22;6592;47.484;9.726;2023-04-01T08:48:23;11.20;99.90
13052;DHT22;6592;47.484;9.726;2023-04-01T08:51:23;11.30;99.90
13052;DHT22;6592;47.484;9.726;2023-04-01T08:54:23;11.20;99.90
13052;DHT22;6592;47.484;9.726;2023-04-01T08:57:01;11.20;99.90
13052;DHT22;6592;47.484;9.726;2023-04-01T08:59:55;11.20;99.90
13052;DHT22;6592;47.484;9.726;2023-04-01T09:02:49;11.20;99.90
13052;DHT22;6592;47.484;9.726;2023-04-01T09:05:32;11.10;99.90
13052;DHT22;6592;47.484;9.726;2023-04-01T09:08:15;11.10;99.90
13052;DHT22;6592;47.484;9.726;2023-04-01T09:10:54;11.20;99.90
13052;DHT22;6592;47.484;9.726;2023-04-01T09:13:34;11.10;99.90
13052;DHT22;6592;47.484;9.726;2023-04-01T09:16:13;11.20;99.90
13052;DHT22;6592;47.484;9.726;2023-04-01T09:18:57;11.00;99.90
13052;DHT22;6592;47.484;9.726;2023-04-01T09:21:51;10.80;99.90
13052;DHT22;6592;47.484;9.726;2023-04-01T09:24:44;10.80;99.90
13052;DHT22;6592;47.484;9.726;2023-04-01T09:27:26;10.80;99.90
13052;DHT22;6592;47.484;9.726;2023-04-01T09:30:19;10.80;99.90
13052;DHT22;6592;47.484;9.726;2023-04-01T09:36:04;10.80;99.90
13052;DHT22;6592;47.484;9.726;2023-04-01T09:38:48;10.70;99.90
13052;DHT22;6592;47.484;9.726;2023-04-01T09:41:28;10.80;99.90
13052;DHT22;6592;47.484;9.726;2023-04-01T09:44:02;10.80;99.90
13052;DHT22;6592;47.484;9.726;2023-04-01T09:46:42;10.90;99.90
13052;DHT22;6592;47.484;9.726;2023-04-01T09:49:44;10.90;99.90
13052;DHT22;6592;47.484;9.726;2023-04-01T09:52:26;10.90;99.90
13052;DHT22;6592;47.484;9.726;2023-04-01T09:55:06;10.90;99.90
13052;DHT22;6592;47.484;9.726;2023-04-01T10:01:26;10.80;99.90
13052;DHT22;6592;47.484;9.726;2023-04-01T10:04:39;10.80;99.90
13052;DHT22;6592;47.484;9.726;2023-04-01T10:10:58;10.80;99.90
13052;DHT22;6592;47.484;9.726;2023-04-01T10:16:55;10.90;99.90
13052;DHT22;6592;47.484;9.726;2023-04-01T10:20:00;11.00;99.90
13052;DHT22;6592;47.484;9.726;2023-04-01T10:23:02;11.00;99.90
13052;DHT22;6592;47.484;9.726;2023-04-01T10:25:53;11.00;99.90
13052;DHT22;6592;47.484;9.726;2023-04-01T10:28:41;10.80;99.90
13052;DHT22;6592;47.484;9.726;2023-04-01T10:34:40;10.90;99.90
13052;DHT22;6592;47.484;9.726;2023-04-01T10:37:22;10.90;99.90
13052;DHT22;6592;47.484;9.726;2023-04-01T10:40:20;10.90;99.90
13052;DHT22;6592;47.484;9.726;2023-04-01T10:43:22;10.90;99.90
13052;DHT22;6592;47.484;9.726;2023-04-01T10:55:35;11.00;99.90
13052;DHT22;6592;47.484;9.726;2023-04-01T11:26:36;11.00;99.90
13052;DHT22;6592;47.484;9.726;2023-04-01T11:29:30;11.10;99.90
13052;DHT22;6592;47.484;9.726;2023-04-01T11:32:17;11.30;99.90
13052;DHT22;6592;47.484;9.726;2023-04-01T11:34:59;11.40;99.90
13052;DHT22;6592;47.484;9.726;2023-04-01T11:37:38;11.40;99.90
13052;DHT22;6592;47.484;9.726;2023-04-01T11:40:23;11.50;99.90
13052;DHT22;6592;47.484;9.726;2023-04-01T11:42:58;11.60;99.90
13052;DHT22;6592;47.484;9.726;2023-04-01T11:45:35;11.60;99.90
13052;DHT22;6592;47.484;9.726;2023-04-01T11:48:23;11.70;99.90
13052;DHT22;6592;47.484;9.726;2023-04-01T11:51:28;11.70;99.90
13052;DHT22;6592;47.484;9.726;2023-04-01T11:54:06;11.70;99.90
13052;DHT22;6592;47.484;9.726;2023-04-01T11:56:58;11.80;99.90
13052;DHT22;6592;47.484;9.726;2023-04-01T11:59:54;11.80;99.90
13052;DHT22;6592;47.484;9.726;2023-04-01T12:02:36;11.80;99.90
13052;DHT22;6592;47.484;9.726;2023-04-01T12:05:36;11.90;99.90
13052;DHT22;6592;47.484;9.726;2023-04-01T12:08:14;12.00;99.90
13052;DHT22;6592;47.484;9.726;2023-04-01T12:10:51;12.00;99.90
13052;DHT22;6592;47.484;9.726;2023-04-01T12:13:36;12.10;99.90
13052;DHT22;6592;47.484;9.726;2023-04-01T12:16:22;12.20;99.90
13052;DHT22;6592;47.484;9.726;2023-04-01T12:18:56;12.40;99.90
13052;DHT22;6592;47.484;9.726;2023-04-01T12:21:34;12.50;99.90
13052;DHT22;6592;47.484;9.726;2023-04-01T12:24:29;12.50;99.90
13052;DHT22;6592;47.484;9.726;2023-04-01T12:27:27;12.60;99.90
13052;DHT22;6592;47.484;9.726;2023-04-01T12:30:30;12.60;99.90
13052;DHT22;6592;47.484;9.726;2023-04-01T12:36:05;12.80;99.90
13052;DHT22;6592;47.484;9.726;2023-04-01T12:38:48;12.80;99.90
13052;DHT22;6592;47.484;9.726;2023-04-01T12:41:26;12.80;99.90
13052;DHT22;6592;47.484;9.726;2023-04-01T12:44:23;12.50;99.90
13052;DHT22;6592;47.484;9.726;2023-04-01T12:47:19;12.80;99.90
13052;DHT22;6592;47.484;9.726;2023-04-01T12:49:57;12.70;99.90
13052;DHT22;6592;47.484;9.726;2023-04-01T12:52:41;12.30;99.90
13052;DHT22;6592;47.484;9.726;2023-04-01T12:55:35;12.10;99.90
13052;DHT22;6592;47.484;9.726;2023-04-01T13:01:29;12.10;99.90
13052;DHT22;6592;47.484;9.726;2023-04-01T13:07:16;12.10;99.90
13052;DHT22;6592;47.484;9.726;2023-04-01T13:09:55;12.20;99.90
13052;DHT22;6592;47.484;9.726;2023-04-01T13:12:49;12.10;99.90
13052;DHT22;6592;47.484;9.726;2023-04-01T13:15:26;12.10;99.90
13052;DHT22;6592;47.484;9.726;2023-04-01T13:18:04;12.10;99.90
13052;DHT22;6592;47.484;9.726;2023-04-01T13:20:44;12.10;99.90
13052;DHT22;6592;47.484;9.726;2023-04-01T13:23:24;12.20;99.90
13052;DHT22;6592;47.484;9.726;2023-04-01T13:26:04;12.20;99.90
13052;DHT22;6592;47.484;9.726;2023-04-01T13:28:49;12.30;99.90
13052;DHT22;6592;47.484;9.726;2023-04-01T13:31:44;12.40;99.90
13052;DHT22;6592;47.484;9.726;2023-04-01T13:34:28;12.50;99.90
13052;DHT22;6592;47.484;9.726;2023-04-01T13:37:10;12.50;99.90
13052;DHT22;6592;47.484;9.726;2023-04-01T13:39:58;12.50;99.90
13052;DHT22;6592;47.484;9.726;2023-04-01T13:42:37;12.60;99.90
13052;DHT22;6592;47.484;9.726;2023-04-01T13:45:14;12.40;99.90
13052;DHT22;6592;47.484;9.726;2023-04-01T13:51:13;12.40;99.90
13052;DHT22;6592;47.484;9.726;2023-04-01T13:56:54;12.40;99.90
13052;DHT22;6592;47.484;9.726;2023-04-01T13:59:51;12.40;99.90
13052;DHT22;6592;47.484;9.726;2023-04-01T14:02:45;12.30;99.90
13052;DHT22;6592;47.484;9.726;2023-04-01T14:05:43;12.20;99.90
13052;DHT22;6592;47.484;9.726;2023-04-01T14:08:26;12.00;99.90
13052;DHT22;6592;47.484;9.726;2023-04-01T14:11:07;12.30;99.90
13052;DHT22;6592;47.484;9.726;2023-04-01T14:13:47;12.30;99.90
13052;DHT22;6592;47.484;9.726;2023-04-01T14:22:33;12.40;99.90
13052;DHT22;6592;47.484;9.726;2023-04-01T14:25:34;12.40;99.90
13052;DHT22;6592;47.484;9.726;2023-04-01T14:28:15;12.50;99.90
13052;DHT22;6592;47.484;9.726;2023-04-01T14:30:59;12.40;99.90
13052;DHT22;6592;47.484;9.726;2023-04-01T14:33:41;12.40;99.90
13052;DHT22;6592;47.484;9.726;2023-04-01T14:36:30;12.30;99.90
13052;DHT22;6592;47.484;9.726;2023-04-01T14:39:15;12.40;99.90
13052;DHT22;6592;47.484;9.726;2023-04-01T14:41:52;12.30;99.90
13052;DHT22;6592;47.484;9.726;2023-04-01T14:45:16;12.30;99.90
13052;DHT22;6592;47.484;9.726;2023-04-01T14:47:50;12.30;99.90
13052;DHT22;6592;47.484;9.726;2023-04-01T14:50:24;12.40;99.90
13052;DHT22;6592;47.484;9.726;2023-04-01T14:53:11;12.50;99.90
13052;DHT22;6592;47.484;9.726;2023-04-01T14:55:49;12.40;99.90
13052;DHT22;6592;47.484;9.726;2023-04-01T14:58:19;12.30;99.90
13052;DHT22;6592;47.484;9.726;2023-04-01T15:00:55;12.20;99.90
13052;DHT22;6592;47.484;9.726;2023-04-01T15:03:30;12.30;99.90
13052;DHT22;6592;47.484;9.726;2023-04-01T15:06:30;12.20;99.90
13052;DHT22;6592;47.484;9.726;2023-04-01T15:09:06;12.30;99.90
13052;DHT22;6592;47.484;9.726;2023-04-01T15:11:49;12.30;99.90
13052;DHT22;6592;47.484;9.726;2023-04-01T15:14:39;12.40;99.90
13052;DHT22;6592;47.484;9.726;2023-04-01T15:17:23;12.50;99.90
13052;DHT22;6592;47.484;9.726;2023-04-01T15:20:19;12.60;99.90
13052;DHT22;6592;47.484;9.726;2023-04-01T15:23:10;12.60;99.90
13052;DHT22;6592;47.484;9.726;2023-04-01T15:26:07;12.60;99.90
13052;DHT22;6592;47.484;9.726;2023-04-01T15:28:43;12.60;99.90
13052;DHT22;6592;47.484;9.726;2023-04-01T15:31:18;12.50;99.90
13052;DHT22;6592;47.484;9.726;2023-04-01T15:34:02;12.50;99.90
13052;DHT22;6592;47.484;9.726;2023-04-01T15:36:39;12.40;99.90
13052;DHT22;6592;47.484;9.726;2023-04-01T15:39:14;12.50;99.90
13052;DHT22;6592;47.484;9.726;2023-04-01T15:41:57;12.50;99.90
13052;DHT22;6592;47.484;9.726;2023-04-01T15:44:53;12.40;99.90
13052;DHT22;6592;47.484;9.726;2023-04-01T15:47:35;12.40;99.90
13052;DHT22;6592;47.484;9.726;2023-04-01T15:53:30;12.10;99.90
13052;DHT22;6592;47.484;9.726;2023-04-01T15:56:14;12.00;99.90
13052;DHT22;6592;47.484;9.726;2023-04-01T15:58:48;11.80;99.90
13052;DHT22;6592;47.484;9.726;2023-04-01T16:01:31;11.70;99.90
13052;DHT22;6592;47.484;9.726;2023-04-01T16:07:10;11.60;99.90
13052;DHT22;6592;47.484;9.726;2023-04-01T16:10:05;11.30;99.90
13052;DHT22;6592;47.484;9.726;2023-04-01T16:12:47;11.20;99.90
13052;DHT22;6592;47.484;9.726;2023-04-01T16:15:25;11.10;99.90
13052;DHT22;6592;47.484;9.726;2023-04-01T16:18:19;11.10;99.90
13052;DHT22;6592;47.484;9.726;2023-04-01T16:20:53;11.00;99.90
13052;DHT22;6592;47.484;9.726;2023-04-01T16:23:29;11.00;99.90
13052;DHT22;6592;47.484;9.726;2023-04-01T16:26:07;11.00;99.90
13052;DHT22;6592;47.484;9.726;2023-04-01T16:28:42;10.30;99.90
13052;DHT22;6592;47.484;9.726;2023-04-01T16:31:29;10.90;99.90
13052;DHT22;6592;47.484;9.726;2023-04-01T16:34:08;10.80;99.90
13052;DHT22;6592;47.484;9.726;2023-04-01T16:36:43;10.90;99.90
13052;DHT22;6592;47.484;9.726;2023-04-01T16:39:28;10.80;99.90
13052;DHT22;6592;47.484;9.726;2023-04-01T16:42:26;10.80;99.90
13052;DHT22;6592;47.484;9.726;2023-04-01T16:45:02;10.90;99.90
13052;DHT22;6592;47.484;9.726;2023-04-01T16:47:38;10.90;99.90
13052;DHT22;6592;47.484;9.726;2023-04-01T16:50:15;10.70;99.90
13052;DHT22;6592;47.484;9.726;2023-04-01T16:53:00;10.70;99.90
13052;DHT22;6592;47.484;9.726;2023-04-01T16:55:47;10.70;99.90
13052;DHT22;6592;47.484;9.726;2023-04-01T16:58:23;10.70;99.90
13052;DHT22;6592;47.484;9.726;2023-04-01T17:00:58;10.80;99.90
13052;DHT22;6592;47.484;9.726;2023-04-01T17:03:33;10.80;99.90
13052;DHT22;6592;47.484;9.726;2023-04-01T17:06:24;10.80;99.90
13052;DHT22;6592;47.484;9.726;2023-04-01T17:09:09;10.80;99.90
13052;DHT22;6592;47.484;9.726;2023-04-01T17:11:49;10.80;99.90
13052;DHT22;6592;47.484;9.726;2023-04-01T17:14:28;10.80;99.90
13052;DHT22;6592;47.484;9.726;2023-04-01T17:17:23;10.70;99.90
13052;DHT22;6592;47.484;9.726;2023-04-01T17:20:12;10.60;99.90
13052;DHT22;6592;47.484;9.726;2023-04-01T17:22:49;10.60;99.90
13052;DHT22;6592;47.484;9.726;2023-04-01T17:25:38;10.70;99.90
13052;DHT22;6592;47.484;9.726;2023-04-01T17:28:21;10.70;99.90
13052;DHT22;6592;47.484;9.726;2023-04-01T17:30:58;10.60;99.90
13052;DHT22;6592;47.484;9.726;2023-04-01T17:33:44;10.60;99.90
13052;DHT22;6592;47.484;9.726;2023-04-01T17:36:33;10.60;99.90
13052;DHT22;6592;47.484;9.726;2023-04-01T17:39:34;10.50;99.90
13052;DHT22;6592;47.484;9.726;2023-04-01T17:42:13;10.50;99.90
13052;DHT22;6592;47.484;9.726;2023-04-01T17:44:52;10.50;99.90
13052;DHT22;6592;47.484;9.726;2023-04-01T17:47:59;10.50;99.90
13052;DHT22;6592;47.484;9.726;2023-04-01T17:50:44;10.50;99.90
13052;DHT22;6592;47.484;9.726;2023-04-01T17:53:23;10.40;99.90
13052;DHT22;6592;47.484;9.726;2023-04-01T17:56:05;10.30;99.90
13052;DHT22;6592;47.484;9.726;2023-04-01T17:58:45;10.30;99.90
13052;DHT22;6592;47.484;9.726;2023-04-01T18:01:30;10.20;99.90
13052;DHT22;6592;47.484;9.726;2023-04-01T18:04:28;10.20;99.90
13052;DHT22;6592;47.484;9.726;2023-04-01T18:07:15;10.10;99.90
13052;DHT22;6592;47.484;9.726;2023-04-01T18:10:01;10.10;99.90
13052;DHT22;6592;47.484;9.726;2023-04-01T18:12:38;10.10;99.90
13052;DHT22;6592;47.484;9.726;2023-04-01T18:15:17;10.10;99.90
13052;DHT22;6592;47.484;9.726;2023-04-01T18:18:02;10.00;99.90
13052;DHT22;6592;47.484;9.726;2023-04-01T18:20:41;10.00;99.90
13052;DHT22;6592;47.484;9.726;2023-04-01T18:23:20;9.90;99.90
13052;DHT22;6592;47.484;9.726;2023-04-01T18:26:04;9.90;99.90
13052;DHT22;6592;47.484;9.726;2023-04-01T18:28:36;9.80;99.90
13052;DHT22;6592;47.484;9.726;2023-04-01T18:31:11;9.80;99.90
13052;DHT22;6592;47.484;9.726;2023-04-01T18:33:48;9.80;99.90
13052;DHT22;6592;47.484;9.726;2023-04-01T18:36:24;9.80;99.90